METAR Data
IDs: Format: Raw Decoded Include TAF

Data at: 1312 UTC 22 Apr 2021

KFYG 221255Z AUTO 00000KT 10SM CLR 00/00 A3026 RMK AO2